sensor_id;sensor_type;location;lat;lon;timestamp;P1;durP1;ratioP1;P2;durP2;ratioP2
21416;SDS011;10869;52.238;10.716;2023-01-10T14:32:38;16.77;;;4.87;;
21416;SDS011;10869;52.238;10.716;2023-01-10T14:35:08;12.67;;;5.00;;
21416;SDS011;10869;52.238;10.716;2023-01-10T14:38:41;15.10;;;5.07;;
21416;SDS011;10869;52.238;10.716;2023-01-10T14:40:47;14.30;;;5.27;;
21416;SDS011;10869;52.238;10.716;2023-01-10T14:43:16;19.80;;;6.33;;
21416;SDS011;10869;52.238;10.716;2023-01-10T14:50:51;15.50;;;4.83;;
21416;SDS011;10869;52.238;10.716;2023-01-10T14:53:32;14.07;;;4.63;;
21416;SDS011;10869;52.238;10.716;2023-01-10T14:55:58;14.83;;;5.27;;
21416;SDS011;10869;52.238;10.716;2023-01-10T14:58:24;15.77;;;4.70;;
21416;SDS011;10869;52.238;10.716;2023-01-10T15:00:50;15.23;;;4.20;;
21416;SDS011;10869;52.238;10.716;2023-01-10T15:06:56;16.23;;;5.13;;
21416;SDS011;10869;52.238;10.716;2023-01-10T15:09:24;18.30;;;5.40;;
21416;SDS011;10869;52.238;10.716;2023-01-10T15:15:21;18.20;;;5.17;;
21416;SDS011;10869;52.238;10.716;2023-01-10T15:17:57;18.60;;;5.83;;
21416;SDS011;10869;52.238;10.716;2023-01-10T15:23:48;16.40;;;4.50;;
21416;SDS011;10869;52.238;10.716;2023-01-10T15:26:47;19.43;;;5.77;;
21416;SDS011;10869;52.238;10.716;2023-01-10T15:29:18;19.17;;;6.50;;
21416;SDS011;10869;52.238;10.716;2023-01-10T15:31:47;19.07;;;6.53;;
21416;SDS011;10869;52.238;10.716;2023-01-10T15:40:37;19.13;;;6.27;;
21416;SDS011;10869;52.238;10.716;2023-01-10T15:46:27;17.63;;;5.20;;
21416;SDS011;10869;52.238;10.716;2023-01-10T15:52:19;9.77;;;4.83;;
21416;SDS011;10869;52.238;10.716;2023-01-10T16:04:09;23.43;;;7.57;;
21416;SDS011;10869;52.238;10.716;2023-01-10T16:18:45;14.63;;;4.03;;
21416;SDS011;10869;52.238;10.716;2023-01-10T16:21:11;10.87;;;3.70;;
21416;SDS011;10869;52.238;10.716;2023-01-10T16:23:41;9.17;;;3.87;;
21416;SDS011;10869;52.238;10.716;2023-01-10T16:29:32;14.43;;;3.70;;
21416;SDS011;10869;52.238;10.716;2023-01-10T16:31:58;13.47;;;3.20;;
21416;SDS011;10869;52.238;10.716;2023-01-10T16:34:23;14.20;;;3.60;;
21416;SDS011;10869;52.238;10.716;2023-01-10T16:46:11;18.80;;;4.73;;
21416;SDS011;10869;52.238;10.716;2023-01-10T16:51:59;18.57;;;4.27;;
21416;SDS011;10869;52.238;10.716;2023-01-10T16:57:46;16.37;;;4.17;;
21416;SDS011;10869;52.238;10.716;2023-01-10T17:00:13;15.80;;;3.60;;
21416;SDS011;10869;52.238;10.716;2023-01-10T17:09:27;15.13;;;3.10;;
21416;SDS011;10869;52.238;10.716;2023-01-10T17:11:55;20.90;;;4.00;;
21416;SDS011;10869;52.238;10.716;2023-01-10T17:14:28;15.83;;;3.20;;
21416;SDS011;10869;52.238;10.716;2023-01-10T17:16:58;19.30;;;4.43;;
21416;SDS011;10869;52.238;10.716;2023-01-10T17:19:24;12.50;;;3.10;;
21416;SDS011;10869;52.238;10.716;2023-01-10T17:21:49;20.87;;;3.37;;
21416;SDS011;10869;52.238;10.716;2023-01-10T17:24:15;18.23;;;3.33;;
21416;SDS011;10869;52.238;10.716;2023-01-10T17:26:41;18.23;;;4.00;;
21416;SDS011;10869;52.238;10.716;2023-01-10T17:29:07;17.57;;;3.20;;
21416;SDS011;10869;52.238;10.716;2023-01-10T17:31:33;12.03;;;3.33;;
21416;SDS011;10869;52.238;10.716;2023-01-10T17:33:58;17.97;;;3.73;;
21416;SDS011;10869;52.238;10.716;2023-01-10T17:39:28;14.17;;;2.87;;
21416;SDS011;10869;52.238;10.716;2023-01-10T17:41:54;14.80;;;3.20;;
21416;SDS011;10869;52.238;10.716;2023-01-10T17:44:20;13.87;;;2.93;;
21416;SDS011;10869;52.238;10.716;2023-01-10T17:46:45;14.20;;;2.87;;
21416;SDS011;10869;52.238;10.716;2023-01-10T17:49:11;12.87;;;2.73;;
21416;SDS011;10869;52.238;10.716;2023-01-10T17:51:37;20.87;;;4.03;;
21416;SDS011;10869;52.238;10.716;2023-01-10T17:54:03;14.67;;;3.33;;
21416;SDS011;10869;52.238;10.716;2023-01-10T17:59:50;16.10;;;3.13;;
21416;SDS011;10869;52.238;10.716;2023-01-10T18:02:16;16.67;;;3.23;;
21416;SDS011;10869;52.238;10.716;2023-01-10T18:04:44;21.80;;;3.47;;
21416;SDS011;10869;52.238;10.716;2023-01-10T18:07:10;20.27;;;3.57;;
21416;SDS011;10869;52.238;10.716;2023-01-10T18:09:36;23.40;;;4.07;;
21416;SDS011;10869;52.238;10.716;2023-01-10T18:12:02;17.53;;;2.63;;
21416;SDS011;10869;52.238;10.716;2023-01-10T18:14:28;23.03;;;3.30;;
21416;SDS011;10869;52.238;10.716;2023-01-10T18:17:00;14.40;;;3.53;;
21416;SDS011;10869;52.238;10.716;2023-01-10T18:19:26;16.83;;;3.33;;
21416;SDS011;10869;52.238;10.716;2023-01-10T18:21:53;19.67;;;3.00;;
21416;SDS011;10869;52.238;10.716;2023-01-10T18:24:19;22.63;;;3.00;;
21416;SDS011;10869;52.238;10.716;2023-01-10T18:26:45;12.83;;;3.27;;
21416;SDS011;10869;52.238;10.716;2023-01-10T18:29:11;12.20;;;2.77;;
21416;SDS011;10869;52.238;10.716;2023-01-10T18:31:37;15.00;;;3.70;;
21416;SDS011;10869;52.238;10.716;2023-01-10T18:34:05;24.53;;;3.10;;
21416;SDS011;10869;52.238;10.716;2023-01-10T18:36:31;15.67;;;2.60;;
21416;SDS011;10869;52.238;10.716;2023-01-10T18:38:58;16.33;;;2.77;;
21416;SDS011;10869;52.238;10.716;2023-01-10T18:41:24;20.83;;;3.27;;
21416;SDS011;10869;52.238;10.716;2023-01-10T18:43:50;14.50;;;2.80;;
21416;SDS011;10869;52.238;10.716;2023-01-10T18:46:17;16.37;;;2.43;;
21416;SDS011;10869;52.238;10.716;2023-01-10T18:48:46;17.80;;;2.93;;
21416;SDS011;10869;52.238;10.716;2023-01-10T18:51:14;15.50;;;2.97;;
21416;SDS011;10869;52.238;10.716;2023-01-10T18:53:42;10.17;;;2.93;;
21416;SDS011;10869;52.238;10.716;2023-01-10T18:56:08;18.80;;;3.37;;
21416;SDS011;10869;52.238;10.716;2023-01-10T18:58:35;22.17;;;2.93;;
21416;SDS011;10869;52.238;10.716;2023-01-10T19:01:07;14.43;;;2.87;;
21416;SDS011;10869;52.238;10.716;2023-01-10T19:03:37;17.40;;;3.27;;
21416;SDS011;10869;52.238;10.716;2023-01-10T19:06:03;23.33;;;3.07;;
21416;SDS011;10869;52.238;10.716;2023-01-10T19:08:30;16.10;;;3.27;;
21416;SDS011;10869;52.238;10.716;2023-01-10T19:14:18;12.67;;;2.80;;
21416;SDS011;10869;52.238;10.716;2023-01-10T19:16:44;12.57;;;2.80;;
21416;SDS011;10869;52.238;10.716;2023-01-10T19:19:10;12.67;;;2.90;;
21416;SDS011;10869;52.238;10.716;2023-01-10T19:21:36;16.67;;;3.30;;
21416;SDS011;10869;52.238;10.716;2023-01-10T19:24:07;16.63;;;3.23;;
21416;SDS011;10869;52.238;10.716;2023-01-10T19:26:43;16.67;;;3.40;;
21416;SDS011;10869;52.238;10.716;2023-01-10T19:29:09;17.73;;;3.57;;
21416;SDS011;10869;52.238;10.716;2023-01-10T19:31:38;14.17;;;3.03;;
21416;SDS011;10869;52.238;10.716;2023-01-10T19:34:04;11.23;;;2.97;;
21416;SDS011;10869;52.238;10.716;2023-01-10T19:36:29;14.20;;;3.13;;
21416;SDS011;10869;52.238;10.716;2023-01-10T19:38:58;18.03;;;3.07;;
21416;SDS011;10869;52.238;10.716;2023-01-10T19:41:25;12.70;;;3.17;;
21416;SDS011;10869;52.238;10.716;2023-01-10T19:43:53;20.27;;;3.37;;
21416;SDS011;10869;52.238;10.716;2023-01-10T19:46:23;11.93;;;3.33;;
21416;SDS011;10869;52.238;10.716;2023-01-10T19:48:50;16.37;;;3.03;;
21416;SDS011;10869;52.238;10.716;2023-01-10T19:51:16;24.00;;;3.97;;
21416;SDS011;10869;52.238;10.716;2023-01-10T19:53:42;18.67;;;3.13;;
21416;SDS011;10869;52.238;10.716;2023-01-10T19:56:10;12.67;;;4.07;;
21416;SDS011;10869;52.238;10.716;2023-01-10T19:58:37;13.53;;;3.40;;
21416;SDS011;10869;52.238;10.716;2023-01-10T20:03:33;17.73;;;3.33;;
21416;SDS011;10869;52.238;10.716;2023-01-10T20:06:02;19.80;;;3.97;;
21416;SDS011;10869;52.238;10.716;2023-01-10T20:08:29;14.80;;;3.07;;
21416;SDS011;10869;52.238;10.716;2023-01-10T20:11:01;20.53;;;4.13;;
21416;SDS011;10869;52.238;10.716;2023-01-10T20:16:14;18.03;;;3.73;;
21416;SDS011;10869;52.238;10.716;2023-01-10T20:18:42;25.50;;;3.90;;
21416;SDS011;10869;52.238;10.716;2023-01-10T20:21:11;17.47;;;3.53;;
21416;SDS011;10869;52.238;10.716;2023-01-10T20:23:41;17.73;;;3.77;;
21416;SDS011;10869;52.238;10.716;2023-01-10T20:26:13;13.50;;;2.80;;
21416;SDS011;10869;52.238;10.716;2023-01-10T20:28:51;16.30;;;3.37;;
21416;SDS011;10869;52.238;10.716;2023-01-10T20:31:18;13.93;;;3.40;;
21416;SDS011;10869;52.238;10.716;2023-01-10T20:33:45;19.30;;;3.33;;
21416;SDS011;10869;52.238;10.716;2023-01-10T20:36:13;17.40;;;4.10;;
21416;SDS011;10869;52.238;10.716;2023-01-10T20:38:40;15.20;;;3.93;;
21416;SDS011;10869;52.238;10.716;2023-01-10T20:41:07;19.97;;;3.93;;
21416;SDS011;10869;52.238;10.716;2023-01-10T20:46:56;26.93;;;5.07;;
21416;SDS011;10869;52.238;10.716;2023-01-10T20:49:22;15.87;;;3.43;;
21416;SDS011;10869;52.238;10.716;2023-01-10T20:51:48;21.23;;;4.23;;
21416;SDS011;10869;52.238;10.716;2023-01-10T20:54:14;16.90;;;3.60;;
21416;SDS011;10869;52.238;10.716;2023-01-10T20:56:40;20.27;;;4.50;;
21416;SDS011;10869;52.238;10.716;2023-01-10T20:59:06;16.10;;;3.80;;
21416;SDS011;10869;52.238;10.716;2023-01-10T21:01:32;18.17;;;4.80;;
21416;SDS011;10869;52.238;10.716;2023-01-10T21:03:58;24.40;;;4.03;;
21416;SDS011;10869;52.238;10.716;2023-01-10T21:06:24;20.30;;;4.97;;
21416;SDS011;10869;52.238;10.716;2023-01-10T21:08:50;12.83;;;3.20;;
21416;SDS011;10869;52.238;10.716;2023-01-10T21:11:16;17.03;;;3.57;;
21416;SDS011;10869;52.238;10.716;2023-01-10T21:13:44;20.23;;;3.70;;
21416;SDS011;10869;52.238;10.716;2023-01-10T21:16:14;22.60;;;4.47;;
21416;SDS011;10869;52.238;10.716;2023-01-10T21:18:42;18.47;;;4.10;;
21416;SDS011;10869;52.238;10.716;2023-01-10T21:21:14;19.43;;;4.57;;
21416;SDS011;10869;52.238;10.716;2023-01-10T21:23:41;20.20;;;4.63;;
21416;SDS011;10869;52.238;10.716;2023-01-10T21:26:08;11.10;;;3.63;;
21416;SDS011;10869;52.238;10.716;2023-01-10T21:28:36;20.40;;;4.53;;
21416;SDS011;10869;52.238;10.716;2023-01-10T21:31:04;23.20;;;4.07;;
21416;SDS011;10869;52.238;10.716;2023-01-10T21:33:31;19.90;;;3.43;;
21416;SDS011;10869;52.238;10.716;2023-01-10T21:35:57;9.53;;;3.10;;
21416;SDS011;10869;52.238;10.716;2023-01-10T21:38:23;10.60;;;2.57;;
21416;SDS011;10869;52.238;10.716;2023-01-10T21:40:53;13.97;;;2.80;;
21416;SDS011;10869;52.238;10.716;2023-01-10T21:43:21;9.63;;;2.30;;
21416;SDS011;10869;52.238;10.716;2023-01-10T21:45:47;9.43;;;1.97;;
21416;SDS011;10869;52.238;10.716;2023-01-10T21:48:13;12.53;;;2.23;;
21416;SDS011;10869;52.238;10.716;2023-01-10T21:50:39;11.40;;;2.60;;
21416;SDS011;10869;52.238;10.716;2023-01-10T21:53:07;12.00;;;2.70;;
21416;SDS011;10869;52.238;10.716;2023-01-10T21:55:33;7.47;;;2.00;;
21416;SDS011;10869;52.238;10.716;2023-01-10T21:58:00;7.90;;;1.87;;
21416;SDS011;10869;52.238;10.716;2023-01-10T22:00:26;11.17;;;2.50;;
21416;SDS011;10869;52.238;10.716;2023-01-10T22:02:52;6.90;;;1.80;;
21416;SDS011;10869;52.238;10.716;2023-01-10T22:05:18;6.87;;;1.53;;
21416;SDS011;10869;52.238;10.716;2023-01-10T22:07:44;4.83;;;1.30;;
21416;SDS011;10869;52.238;10.716;2023-01-10T22:10:10;8.87;;;1.63;;
21416;SDS011;10869;52.238;10.716;2023-01-10T22:12:36;8.30;;;1.47;;
21416;SDS011;10869;52.238;10.716;2023-01-10T22:15:02;8.47;;;1.80;;
21416;SDS011;10869;52.238;10.716;2023-01-10T22:17:28;9.43;;;1.97;;
21416;SDS011;10869;52.238;10.716;2023-01-10T22:19:54;6.90;;;1.50;;
21416;SDS011;10869;52.238;10.716;2023-01-10T22:22:20;5.87;;;1.43;;
21416;SDS011;10869;52.238;10.716;2023-01-10T22:24:46;8.30;;;1.47;;
21416;SDS011;10869;52.238;10.716;2023-01-10T22:27:15;7.27;;;1.33;;
21416;SDS011;10869;52.238;10.716;2023-01-10T22:29:41;6.30;;;1.37;;
21416;SDS011;10869;52.238;10.716;2023-01-10T22:32:07;8.03;;;1.70;;
21416;SDS011;10869;52.238;10.716;2023-01-10T22:34:33;9.00;;;2.40;;
21416;SDS011;10869;52.238;10.716;2023-01-10T22:36:59;8.70;;;1.90;;
21416;SDS011;10869;52.238;10.716;2023-01-10T22:39:25;10.63;;;2.13;;
21416;SDS011;10869;52.238;10.716;2023-01-10T22:41:50;8.90;;;1.80;;
21416;SDS011;10869;52.238;10.716;2023-01-10T22:44:21;9.57;;;2.30;;
21416;SDS011;10869;52.238;10.716;2023-01-10T22:46:52;7.43;;;1.60;;
21416;SDS011;10869;52.238;10.716;2023-01-10T22:49:19;10.63;;;2.00;;
21416;SDS011;10869;52.238;10.716;2023-01-10T22:51:45;9.17;;;2.03;;
21416;SDS011;10869;52.238;10.716;2023-01-10T22:54:11;8.73;;;2.10;;
21416;SDS011;10869;52.238;10.716;2023-01-10T22:56:39;10.87;;;2.30;;
21416;SDS011;10869;52.238;10.716;2023-01-10T22:59:09;13.23;;;2.10;;
21416;SDS011;10869;52.238;10.716;2023-01-10T23:01:35;16.00;;;2.57;;
21416;SDS011;10869;52.238;10.716;2023-01-10T23:04:01;11.63;;;2.20;;
21416;SDS011;10869;52.238;10.716;2023-01-10T23:06:27;14.97;;;2.07;;
21416;SDS011;10869;52.238;10.716;2023-01-10T23:08:53;8.70;;;2.00;;
21416;SDS011;10869;52.238;10.716;2023-01-10T23:11:19;9.63;;;1.90;;
21416;SDS011;10869;52.238;10.716;2023-01-10T23:13:46;12.23;;;1.93;;
21416;SDS011;10869;52.238;10.716;2023-01-10T23:16:17;13.53;;;2.93;;
21416;SDS011;10869;52.238;10.716;2023-01-10T23:18:52;11.37;;;2.53;;
21416;SDS011;10869;52.238;10.716;2023-01-10T23:21:19;8.90;;;2.30;;
21416;SDS011;10869;52.238;10.716;2023-01-10T23:23:45;9.73;;;2.37;;
21416;SDS011;10869;52.238;10.716;2023-01-10T23:26:11;7.77;;;1.80;;
21416;SDS011;10869;52.238;10.716;2023-01-10T23:28:42;13.53;;;2.17;;
21416;SDS011;10869;52.238;10.716;2023-01-10T23:31:11;9.97;;;1.80;;
21416;SDS011;10869;52.238;10.716;2023-01-10T23:33:38;9.47;;;1.87;;
21416;SDS011;10869;52.238;10.716;2023-01-10T23:36:04;9.73;;;1.90;;
21416;SDS011;10869;52.238;10.716;2023-01-10T23:38:30;9.53;;;1.83;;
21416;SDS011;10869;52.238;10.716;2023-01-10T23:40:56;6.13;;;1.47;;
21416;SDS011;10869;52.238;10.716;2023-01-10T23:43:22;6.80;;;1.50;;
21416;SDS011;10869;52.238;10.716;2023-01-10T23:45:48;7.63;;;1.43;;
21416;SDS011;10869;52.238;10.716;2023-01-10T23:48:14;7.90;;;1.93;;
21416;SDS011;10869;52.238;10.716;2023-01-10T23:50:40;8.07;;;2.00;;
21416;SDS011;10869;52.238;10.716;2023-01-10T23:53:07;10.57;;;2.13;;
21416;SDS011;10869;52.238;10.716;2023-01-10T23:55:33;13.30;;;2.93;;
21416;SDS011;10869;52.238;10.716;2023-01-10T23:57:59;8.13;;;1.70;;
